createdAt,value
2017-09-10T00:00:34.436Z,79.35
2017-09-10T00:02:28.858Z,79.35
2017-09-10T00:03:28.898Z,79.06
2017-09-10T00:05:23.378Z,79.25
2017-09-10T00:06:23.378Z,79.35
2017-09-10T00:08:17.859Z,79.44
2017-09-10T00:09:17.955Z,79.16
2017-09-10T00:11:12.371Z,79.16
2017-09-10T00:12:12.403Z,79.54
2017-09-10T00:14:05.835Z,79.06
2017-09-10T00:15:05.891Z,79.25
2017-09-10T00:17:00.355Z,79.06
2017-09-10T00:18:00.363Z,79.54
2017-09-10T00:19:54.803Z,79.35
2017-09-10T00:20:54.851Z,78.87
2017-09-10T00:22:49.331Z,79.06
2017-09-10T00:23:49.339Z,79.06
2017-09-10T00:25:43.883Z,79.44
2017-09-10T00:26:43.844Z,79.64
2017-09-10T00:28:38.316Z,79.93
2017-09-10T00:29:38.331Z,79.98
2017-09-10T00:31:32.787Z,79.73
2017-09-10T00:32:32.836Z,79.50
2017-09-10T00:34:27.316Z,79.83
2017-09-10T00:35:27.364Z,80.17
2017-09-10T00:37:21.771Z,80.07
2017-09-10T00:38:21.835Z,79.50
2017-09-10T00:40:16.364Z,79.93
2017-09-10T00:41:16.284Z,79.73
2017-09-10T00:43:10.788Z,80.07
2017-09-10T00:44:10.820Z,80.07
2017-09-10T00:46:05.253Z,80.17
2017-09-10T00:47:05.284Z,80.07
2017-09-10T00:48:59.773Z,79.88
2017-09-10T00:50:08.524Z,79.50
2017-09-10T00:51:54.213Z,79.88
2017-09-10T00:52:54.349Z,80.17
2017-09-10T00:54:47.735Z,80.07
2017-09-10T00:55:47.757Z,80.07
2017-09-10T00:57:42.261Z,80.07
2017-09-10T00:58:42.258Z,80.07
2017-09-10T01:00:36.801Z,80.46
2017-09-10T01:01:36.733Z,80.07
2017-09-10T01:03:31.245Z,80.46
2017-09-10T01:04:31.229Z,80.46
2017-09-10T01:06:34.329Z,80.46
2017-09-10T01:07:25.781Z,80.17
2017-09-10T01:09:19.246Z,80.36
2017-09-10T01:10:19.236Z,80.65
2017-09-10T01:12:13.709Z,80.36
2017-09-10T01:13:13.727Z,80.46
2017-09-10T01:15:08.237Z,79.98
2017-09-10T01:16:16.966Z,80.65
2017-09-10T01:18:02.734Z,80.46
2017-09-10T01:19:02.742Z,80.46
2017-09-10T01:20:57.190Z,80.65
2017-09-10T01:21:57.198Z,80.74
2017-09-10T01:23:51.726Z,80.46
2017-09-10T01:24:51.710Z,80.55
2017-09-10T01:26:46.150Z,80.61
2017-09-10T01:27:46.238Z,80.84
2017-09-10T01:29:40.734Z,80.55
2017-09-10T01:30:40.751Z,80.55
2017-09-10T01:32:36.766Z,80.70
2017-09-10T01:33:36.670Z,80.80
2017-09-10T01:35:31.172Z,80.80
2017-09-10T01:36:31.188Z,80.99
2017-09-10T01:38:25.684Z,80.90
2017-09-10T01:39:25.668Z,80.99
2017-09-10T01:41:20.116Z,80.80
2017-09-10T01:42:20.284Z,80.90
2017-09-10T01:44:14.765Z,80.80
2017-09-10T01:45:14.652Z,81.09
2017-09-10T01:47:09.165Z,80.99
2017-09-10T01:48:09.261Z,81.18
2017-09-10T01:50:03.661Z,80.80
2017-09-10T01:51:03.629Z,81.09
2017-09-10T01:52:58.234Z,80.90
2017-09-10T01:53:58.157Z,80.80
2017-09-10T01:55:52.716Z,80.99
2017-09-10T01:56:52.668Z,80.80
2017-09-10T01:58:47.093Z,80.90
2017-09-10T01:59:47.118Z,81.37
2017-09-10T02:01:41.574Z,81.18
2017-09-10T02:02:41.581Z,81.66
2017-09-10T02:04:36.069Z,81.37
2017-09-10T02:05:36.110Z,81.47
2017-09-10T02:07:30.590Z,81.66
2017-09-10T02:08:30.566Z,81.27
2017-09-10T02:10:25.126Z,81.09
2017-09-10T02:11:25.102Z,80.99
2017-09-10T02:13:19.534Z,81.47
2017-09-10T02:14:19.566Z,81.76
2017-09-10T02:16:14.038Z,81.56
2017-09-10T02:17:14.103Z,81.37
2017-09-10T02:19:08.615Z,81.66
2017-09-10T02:20:08.566Z,81.47
2017-09-10T02:22:03.006Z,81.76
2017-09-10T02:23:03.055Z,81.66
2017-09-10T02:24:57.543Z,81.47
2017-09-10T02:25:57.566Z,81.47
2017-09-10T02:27:52.446Z,81.37
2017-09-10T02:28:52.078Z,81.27
2017-09-10T02:30:46.502Z,81.76
2017-09-10T02:31:46.583Z,81.37
2017-09-10T02:33:40.007Z,81.37
2017-09-10T02:34:40.031Z,81.37
2017-09-10T02:36:34.462Z,81.37
2017-09-10T02:37:34.527Z,81.27
2017-09-10T02:39:29.080Z,81.18
2017-09-10T02:40:29.007Z,81.37
2017-09-10T02:42:23.447Z,81.47
2017-09-10T02:43:23.487Z,81.47
2017-09-10T02:45:19.503Z,81.56
2017-09-10T02:46:19.568Z,81.47
2017-09-10T02:48:15.503Z,81.37
2017-09-10T02:49:15.576Z,81.27
2017-09-10T02:51:09.984Z,81.37
2017-09-10T02:52:10.056Z,81.18
2017-09-10T02:54:04.488Z,81.43
2017-09-10T02:55:04.492Z,81.43
2017-09-10T02:56:58.963Z,81.62
2017-09-10T02:57:58.992Z,81.62
2017-09-10T02:59:53.464Z,81.04
2017-09-10T03:00:53.464Z,81.14
2017-09-10T03:02:47.952Z,81.14
2017-09-10T03:03:47.960Z,81.14
2017-09-10T03:05:42.448Z,82.19
2017-09-10T03:06:42.440Z,82.29
2017-09-10T03:08:36.888Z,81.71
2017-09-10T03:09:36.984Z,81.71
2017-09-10T03:11:31.457Z,81.71
2017-09-10T03:12:31.424Z,82.00
2017-09-10T03:14:27.448Z,81.52
2017-09-10T03:15:27.417Z,82.29
2017-09-10T03:17:21.889Z,81.90
2017-09-10T03:18:22.042Z,82.09
2017-09-10T03:20:16.385Z,82.09
2017-09-10T03:21:16.521Z,82.09
2017-09-10T03:23:10.929Z,82.00
2017-09-10T03:24:10.898Z,82.09
2017-09-10T03:26:05.345Z,82.00
2017-09-10T03:27:05.385Z,82.19
2017-09-10T03:28:59.913Z,82.38
2017-09-10T03:29:59.922Z,82.57
2017-09-10T03:31:54.449Z,82.38
2017-09-10T03:32:54.457Z,82.48
2017-09-10T03:34:48.873Z,82.57
2017-09-10T03:35:48.890Z,82.57
2017-09-10T03:37:43.378Z,82.86
2017-09-10T03:38:52.097Z,82.86
2017-09-10T03:40:37.810Z,82.95
2017-09-10T03:41:37.858Z,82.86
2017-09-10T03:43:32.346Z,82.38
2017-09-10T03:44:32.363Z,82.67
2017-09-10T03:46:26.793Z,82.76
2017-09-10T03:47:26.825Z,82.67
2017-09-10T03:49:21.329Z,82.67
2017-09-10T03:50:21.393Z,83.05
2017-09-10T03:52:15.826Z,83.43
2017-09-10T03:53:15.825Z,83.34
2017-09-10T03:55:10.289Z,83.05
2017-09-10T03:56:10.296Z,83.14
2017-09-10T03:58:04.833Z,83.81
2017-09-10T03:59:04.793Z,83.81
2017-09-10T04:00:59.265Z,83.67
2017-09-10T04:01:59.298Z,84.53
2017-09-10T04:03:53.722Z,84.44
2017-09-10T04:04:53.801Z,84.48
2017-09-10T04:06:48.249Z,84.16
2017-09-10T04:07:48.249Z,84.34
2017-09-10T04:09:42.769Z,84.00
2017-09-10T04:10:42.764Z,84.06
2017-09-10T04:12:38.226Z,84.00
2017-09-10T04:13:38.234Z,84.10
2017-09-10T04:15:34.178Z,84.16
2017-09-10T04:16:34.225Z,84.16
2017-09-10T04:18:28.713Z,84.25
2017-09-10T04:19:28.747Z,84.25
2017-09-10T04:21:23.186Z,84.34
2017-09-10T04:22:23.218Z,84.34
2017-09-10T04:24:17.658Z,84.53
2017-09-10T04:25:17.682Z,84.82
2017-09-10T04:27:10.697Z,84.72
2017-09-10T04:28:10.730Z,85.01
2017-09-10T04:30:05.203Z,84.92
2017-09-10T04:31:05.266Z,85.11
2017-09-10T04:32:59.698Z,85.01
2017-09-10T04:33:59.706Z,84.77
2017-09-10T04:35:54.186Z,84.82
2017-09-10T04:36:54.243Z,84.82
2017-09-10T04:38:48.723Z,84.92
2017-09-10T04:39:48.722Z,85.21
2017-09-10T04:41:43.131Z,85.11
2017-09-10T04:42:43.187Z,85.39
2017-09-10T04:44:37.891Z,85.30
2017-09-10T04:45:37.915Z,85.39
2017-09-10T04:47:32.507Z,85.39
2017-09-10T04:48:32.459Z,85.39
2017-09-10T04:50:25.923Z,85.49
2017-09-10T04:51:25.883Z,85.49
2017-09-10T04:53:20.387Z,85.21
2017-09-10T04:54:20.379Z,85.21
2017-09-10T04:56:14.851Z,84.92
2017-09-10T04:57:14.916Z,85.39
2017-09-10T04:59:08.412Z,85.49
2017-09-10T05:00:08.443Z,85.30
2017-09-10T05:02:02.876Z,85.72
2017-09-10T05:03:02.955Z,84.96
2017-09-10T05:04:57.388Z,85.63
2017-09-10T05:05:57.372Z,85.63
2017-09-10T05:07:51.860Z,85.25
2017-09-10T05:08:51.851Z,85.34
2017-09-10T05:10:47.820Z,85.82
2017-09-10T05:11:47.932Z,85.34
2017-09-10T05:13:42.364Z,85.34
2017-09-10T05:14:42.819Z,85.72
2017-09-10T05:16:36.860Z,85.44
2017-09-10T05:17:36.876Z,85.72
2017-09-10T05:19:31.333Z,86.06
2017-09-10T05:20:31.373Z,85.58
2017-09-10T05:22:25.837Z,85.91
2017-09-10T05:23:25.918Z,85.53
2017-09-10T05:25:20.308Z,85.82
2017-09-10T05:26:20.333Z,85.91
2017-09-10T05:28:14.813Z,85.68
2017-09-10T05:29:14.853Z,85.34
2017-09-10T05:31:08.285Z,86.35
2017-09-10T05:32:08.317Z,86.01
2017-09-10T05:34:01.797Z,86.20
2017-09-10T05:35:01.826Z,85.53
2017-09-10T05:36:56.253Z,85.91
2017-09-10T05:37:56.293Z,85.53
2017-09-10T05:39:50.781Z,85.82
2017-09-10T05:40:59.428Z,86.01
2017-09-10T05:42:45.245Z,85.91
2017-09-10T05:43:45.277Z,86.01
2017-09-10T05:45:38.775Z,85.72
2017-09-10T05:46:38.766Z,85.72
2017-09-10T05:48:33.222Z,85.72
2017-09-10T05:49:33.262Z,85.25
2017-09-10T05:51:27.734Z,85.72
2017-09-10T05:52:27.750Z,85.72
2017-09-10T05:54:22.222Z,86.01
2017-09-10T05:55:22.230Z,85.72
2017-09-10T05:57:16.686Z,85.91
2017-09-10T05:58:16.726Z,85.91
2017-09-10T06:00:11.214Z,85.63
2017-09-10T06:01:11.214Z,85.72
2017-09-10T06:03:05.674Z,85.72
2017-09-10T06:04:05.703Z,85.72
2017-09-10T06:05:59.190Z,85.63
2017-09-10T06:06:59.190Z,85.72
2017-09-10T06:08:53.648Z,86.10
2017-09-10T06:09:53.671Z,85.63
2017-09-10T06:11:48.263Z,86.20
2017-09-10T06:12:48.191Z,86.10
2017-09-10T06:14:42.719Z,86.20
2017-09-10T06:15:42.791Z,85.91
2017-09-10T06:17:37.183Z,86.49
2017-09-10T06:18:37.199Z,86.68
2017-09-10T06:20:31.751Z,86.20
2017-09-10T06:21:31.743Z,86.20
2017-09-10T06:23:26.191Z,87.06
2017-09-10T06:24:26.248Z,86.77
2017-09-10T06:26:20.730Z,86.96
2017-09-10T06:27:20.848Z,87.15
2017-09-10T06:29:15.303Z,86.87
2017-09-10T06:30:15.312Z,86.87
2017-09-10T06:32:08.809Z,87.44
2017-09-10T06:33:08.808Z,87.54
2017-09-10T06:35:03.343Z,87.35
2017-09-10T06:36:03.383Z,87.06
2017-09-10T06:37:57.784Z,87.35
2017-09-10T06:38:57.824Z,87.25
2017-09-10T06:40:52.312Z,87.01
2017-09-10T06:41:52.320Z,87.25
2017-09-10T06:43:46.823Z,87.29
2017-09-10T06:44:46.808Z,87.48
2017-09-10T06:46:41.264Z,87.48
2017-09-10T06:47:41.304Z,87.48
2017-09-10T06:49:34.961Z,87.48
2017-09-10T06:50:34.832Z,87.77
2017-09-10T06:52:29.281Z,87.29
2017-09-10T06:53:29.338Z,87.29
2017-09-10T06:55:23.840Z,87.58
2017-09-10T06:56:23.801Z,87.10
2017-09-10T06:58:18.281Z,87.29
2017-09-10T06:59:18.314Z,87.01
2017-09-10T07:01:12.777Z,87.20
2017-09-10T07:02:12.794Z,87.05
2017-09-10T07:04:07.257Z,87.05
2017-09-10T07:05:07.289Z,87.05
2017-09-10T07:07:01.781Z,86.57
2017-09-10T07:08:01.785Z,86.76
2017-09-10T07:09:56.273Z,86.67
2017-09-10T07:10:56.297Z,86.47
2017-09-10T07:12:49.745Z,86.67
2017-09-10T07:13:49.777Z,86.47
2017-09-10T07:15:44.250Z,86.86
2017-09-10T07:16:44.274Z,86.38
2017-09-10T07:18:38.761Z,86.19
2017-09-10T07:19:38.761Z,86.10
2017-09-10T07:21:33.214Z,85.75
2017-09-10T07:22:33.257Z,86.23
2017-09-10T07:24:27.730Z,86.43
2017-09-10T07:25:27.746Z,86.14
2017-09-10T07:27:22.193Z,86.14
2017-09-10T07:28:22.234Z,85.94
2017-09-10T07:30:16.714Z,85.75
2017-09-10T07:31:16.722Z,86.14
2017-09-10T07:33:11.202Z,85.28
2017-09-10T07:34:11.227Z,85.09
2017-09-10T07:36:05.715Z,84.80
2017-09-10T07:37:05.722Z,84.89
2017-09-10T07:39:00.178Z,85.13
2017-09-10T07:40:00.218Z,84.75
2017-09-10T07:41:54.690Z,84.84
2017-09-10T07:42:54.715Z,84.17
2017-09-10T07:44:49.179Z,85.03
2017-09-10T07:45:49.210Z,84.55
2017-09-10T07:47:43.698Z,83.93
2017-09-10T07:48:43.739Z,83.16
2017-09-10T07:50:38.163Z,83.16
2017-09-10T07:51:38.202Z,82.68
2017-09-10T07:53:32.707Z,80.96
2017-09-10T07:54:32.715Z,82.43
2017-09-10T07:56:27.171Z,81.86
2017-09-10T07:57:27.203Z,82.34
2017-09-10T07:59:20.188Z,81.67
2017-09-10T08:00:20.203Z,80.62
2017-09-10T08:02:13.699Z,80.56
2017-09-10T08:03:13.707Z,80.47
2017-09-10T08:05:08.219Z,80.66
2017-09-10T08:06:08.260Z,81.04
2017-09-10T08:08:02.755Z,78.84
2017-09-10T08:09:02.764Z,79.22
2017-09-10T08:10:57.236Z,78.59
2017-09-10T08:11:57.267Z,77.92
2017-09-10T08:13:52.244Z,77.34
2017-09-10T08:14:51.748Z,77.15
2017-09-10T08:16:54.179Z,76.62
2017-09-10T08:17:46.436Z,76.62
2017-09-10T08:19:41.012Z,76.23
2017-09-10T08:20:40.924Z,75.27
2017-09-10T08:22:35.516Z,75.95
2017-09-10T08:23:35.356Z,75.50
2017-09-10T08:25:30.108Z,75.70
2017-09-10T08:26:38.356Z,75.21
2017-09-10T08:28:30.532Z,75.12
2017-09-10T08:29:31.637Z,74.96
2017-09-10T08:31:16.420Z,74.19
2017-09-10T08:32:16.428Z,73.04
2017-09-10T08:34:12.460Z,73.14
2017-09-10T08:35:21.140Z,71.83
2017-09-10T08:37:08.021Z,73.08
2017-09-10T08:38:15.669Z,71.45
2017-09-10T08:40:00.429Z,70.68
2017-09-10T08:41:00.485Z,70.78
2017-09-10T08:42:53.717Z,71.16
2017-09-10T08:43:55.380Z,70.58
2017-09-10T08:45:48.485Z,70.81
2017-09-10T08:46:57.117Z,70.52
2017-09-10T08:48:42.853Z,68.51
2017-09-10T08:49:43.701Z,69.40
2017-09-10T08:51:39.470Z,69.69
2017-09-10T08:52:38.373Z,69.82
2017-09-10T08:54:33.669Z,67.13
2017-09-10T08:55:33.709Z,67.13
2017-09-10T08:57:42.214Z,66.65
2017-09-10T08:58:49.709Z,66.58
2017-09-10T09:00:35.517Z,65.91
2017-09-10T09:01:35.649Z,64.47
2017-09-10T09:03:30.061Z,64.18
2017-09-10T09:04:30.093Z,63.89
2017-09-10T09:06:26.101Z,64.28
2017-09-10T09:07:26.093Z,63.79
2017-09-10T09:09:19.646Z,63.31
2017-09-10T09:10:19.597Z,62.77
2017-09-10T09:12:13.149Z,62.60
2017-09-10T09:13:14.006Z,61.52
2017-09-10T09:15:07.677Z,60.75
2017-09-10T09:16:07.765Z,60.27
2017-09-10T09:18:02.213Z,59.81
2017-09-10T09:19:02.197Z,60.10
2017-09-10T09:20:56.654Z,60.32
2017-09-10T09:21:56.653Z,59.72
2017-09-10T09:23:50.646Z,59.55
2017-09-10T09:24:50.166Z,59.27
2017-09-10T09:26:44.663Z,59.20
2017-09-10T09:27:44.699Z,57.94
2017-09-10T09:29:39.150Z,55.05
2017-09-10T09:30:39.198Z,54.06
2017-09-10T09:32:33.718Z,56.30
2017-09-10T09:33:33.702Z,55.76
2017-09-10T09:35:28.176Z,54.69
2017-09-10T09:36:28.216Z,53.25
2017-09-10T09:38:22.704Z,54.82
2017-09-10T09:39:22.733Z,53.78
2017-09-10T09:41:17.201Z,52.04
2017-09-10T09:42:17.264Z,51.65
2017-09-10T09:44:11.769Z,51.37
2017-09-10T09:45:11.792Z,51.46
2017-09-10T09:47:06.280Z,51.29
2017-09-10T09:48:06.313Z,51.03
2017-09-10T09:50:00.778Z,49.49
2017-09-10T09:51:00.876Z,50.16
2017-09-10T09:53:02.949Z,49.68
2017-09-10T09:53:55.325Z,50.09
2017-09-10T09:55:49.820Z,47.65
2017-09-10T09:56:49.854Z,46.95
2017-09-10T09:58:44.349Z,47.63
2017-09-10T09:59:44.365Z,46.92
2017-09-10T10:01:37.997Z,47.48
2017-09-10T10:02:38.189Z,48.06
2017-09-10T10:04:32.557Z,47.87
2017-09-10T10:05:32.565Z,47.96
2017-09-10T10:07:27.061Z,48.64
2017-09-10T10:08:27.086Z,48.64
2017-09-10T10:10:21.614Z,48.61
2017-09-10T10:11:21.622Z,49.22
2017-09-10T10:13:16.070Z,48.66
2017-09-10T10:14:16.117Z,49.34
